Delta, Utah Weather observations

Data are for observation ending at time listed.
 Day   Time    Ave.   Ave.  Ave.  Vector   Max.   Stn.    Total    Solar   Ave.  
  of    of     Air    Rel.  Wind   Wind    Wind   Baro.  Precip.   Rad.    Soil  
Year   Day     Temp.  Hum.  Speed  Dir.    Gust   Pres.                    Temp. 
2014   (MST)    F      %     mph   deg.    mph     mb.     in.     W/m2     F   
------------------------------------------------------------------------------
 258    8:40   70.4    35    1.3   164      3.3   863.3    0.00     360    99999.0
 258    8:50   70.3    35    1.6   195      3.8   863.4    0.00     389    99999.0
 258    9:00   70.7    39    1.8   312      5.0   863.5    0.00     302    99999.0
 258    9:10   70.6    39    0.7   248      2.4   863.5    0.00     429    99999.0
 258    9:20   71.4    35    1.6   309      3.1   863.5    0.00     467    99999.0
 258    9:30   73.6    32    0.6    70      2.6   863.4    0.00     482    99999.0
 258    9:40   75.2    32    1.5    92      3.4   863.3    0.00     498    99999.0
 258    9:50   75.7    29    1.7   126      3.7   863.3    0.00     538    99999.0
 258   10:00   76.2    30    2.2   110      4.5   863.3    0.00     546    99999.0
 258   10:10   77.1    30    2.2   116      3.6   863.2    0.00     516    99999.0
 258   10:20   77.8    28    2.3   132      3.9   863.2    0.00     610    99999.0
 258   10:30   79.5    25    2.3   150      5.7   863.2    0.00     644    99999.0
 258   10:40   79.7    25    1.9   141      4.7   863.1    0.00     583    99999.0
 258   10:50   80.6    24    2.5   157      5.3   863.1    0.00     612    99999.0
 258   11:00   80.7    22    3.1   182      6.4   863.1    0.00     620    99999.0
 258   11:10   81.2    22    2.3   184      4.8   863.1    0.00     632    99999.0
 258   11:20   81.7    22    2.0   201      5.3   863.0    0.00     642    99999.0
 258   11:30   81.8    22    2.5   208      4.7   863.0    0.00     649    99999.0
 258   11:40   81.7    22    2.0   236      3.9   862.9    0.00     659    99999.0
 258   11:50   82.2    22    2.4   189      5.1   862.9    0.00     676    99999.0
 258   12:00   82.9    21    3.7   278      7.0   862.8    0.00     601    99999.0
 258   12:10   82.5    22    1.4   242      4.1   862.7    0.00     184    99999.0
 258   12:20   82.6    22    1.7   244      3.2   862.7    0.00     694    99999.0
 258   12:30   84.3    21    2.0   283      5.0   862.6    0.00     748    99999.0
 258   12:40   85.0    22    1.8   266      4.1   862.4    0.00     716    99999.0
 258   12:50   84.8    20    2.3   239      5.7   862.3    0.00     673    99999.0
 258   13:00   85.4    21    1.5   306      3.7   862.2    0.00     656    99999.0
 258   13:10   85.3    21    1.7    41      3.9   862.1    0.00     648    99999.0
 258   13:20   85.6    19    2.8   242      5.8   862.0    0.00     644    99999.0
 258   13:30   86.0    20    1.9   232      5.0   861.9    0.00     636    99999.0
 258   13:40   85.7    20    2.5   167      4.7   861.7    0.00     626    99999.0
 258   13:50   86.1    20    1.7   237      4.1   861.6    0.00     615    99999.0
 258   14:00   86.6    20    2.1   257      5.0   861.5    0.00     607    99999.0
 258   14:10   86.5    19    2.4   230      5.1   861.4    0.00     596    99999.0
 258   14:20   86.9    18    1.8   268      5.8   861.3    0.00     582    99999.0
 258   14:30   86.9    18    2.1   276      5.2   861.2    0.00     567    99999.0
 258   14:40   86.8    19    2.7   255      6.7   861.1    0.00     549    99999.0
 258   14:50   86.7    18    2.5   228      5.6   861.1    0.00     534    99999.0
 258   15:00   87.0    17    1.9   227      4.6   861.0    0.00     514    99999.0
 258   15:10   86.9    15    1.5   210      4.1   861.0    0.00     497    99999.0
 258   15:20   87.5    15    1.4   324      5.2   860.9    0.00     474    99999.0
 258   15:30   87.2    17    2.0   241      6.1   860.9    0.00     432    99999.0
 258   15:40   87.2    16    1.2   228      3.4   860.9    0.00     431    99999.0
 258   15:50   87.0    16    1.7   236      4.6   860.9    0.00     297    99999.0
 258   16:00   87.0    15    2.1   280      6.1   860.9    0.00      89    99999.0
 258   16:10   87.1    16    1.4   242      4.2   860.9    0.00      87    99999.0
 258   16:20   87.0    16    1.0   177      2.8   860.9    0.00      90    99999.0
 258   16:30   87.4    15    2.4   327      5.6   860.9    0.00      76    99999.0
 258   16:40   87.1    16    1.9   309      3.9   860.8    0.00      64    99999.0
 258   16:50   86.6    18    1.7    21      3.8   860.8    0.00      56    99999.0
 258   17:00   86.3    17    1.1     2      2.9   860.9    0.00      57    99999.0
 258   17:10   86.0    17    1.4    10      3.8   860.9    0.00      59    99999.0
 258   17:20   86.1    15    1.3     2      3.3   860.8    0.00      54    99999.0
 258   17:30   85.3    17    0.0     0      0.0   860.8    0.00      48    99999.0
 258   17:40   84.5    18    0.1   210      1.2   860.8    0.00      43    99999.0
 258   17:50   84.4    17    0.3   305      1.8   860.6    0.00      35    99999.0
 258   18:00   83.5    22    0.1    22      0.9   860.6    0.00      38    99999.0
 258   18:10   82.7    22    0.0     0      0.0   860.6    0.00      41    99999.0
 258   18:20   82.4    23    0.0     0      0.0   860.6    0.00      23    99999.0
 258   18:30   81.9    23    1.1   212      3.9   860.6    0.00      13    99999.0
 258   18:40   81.6    23    2.7   215      4.2   860.6    0.00       5    99999.0
 258   18:50   80.2    25    2.3   224      3.9   860.7    0.00       0    99999.0
 258   19:00   79.5    25    2.4   223      4.0   860.7    0.00       0    99999.0
 258   19:10   79.3    24    2.0   216      2.9   860.8    0.00       0    99999.0
 258   19:20   78.7    26    1.8   203      3.7   860.9    0.00       0    99999.0
 258   19:30   77.8    26    1.3   226      3.1   860.9    0.00       0    99999.0
 258   19:40   77.7    26    1.5   226      2.6   861.0    0.00       0    99999.0
 258   19:50   76.9    28    0.9   242      1.9   861.1    0.00       0    99999.0
 258   20:00   75.4    30    0.1   274      1.2   861.1    0.00       0    99999.0
 258   20:10   73.9    32    0.0     0      0.0   861.2    0.00       0    99999.0
 258   20:20   72.8    33    0.0     0      0.0   861.3    0.00       0    99999.0
 258   20:30   72.3    33    0.0     0      0.0   861.3    0.00       0    99999.0
 258   20:40   72.0    32    0.0     0      0.0   861.3    0.00       0    99999.0
 258   20:50   71.7    34    0.1   352      0.9   861.4    0.00       0    99999.0
 258   21:00   71.3    35    0.0     0      0.0   861.4    0.00       0    99999.0
 258   21:10   71.0    34    0.2   163      2.0   861.5    0.00       0    99999.0
 258   21:20   70.8    37    2.3   143      4.2   861.6    0.00       0    99999.0
 258   21:30   71.0    34    1.8   175      3.7   861.7    0.00       0    99999.0
 258   21:40   71.4    32    1.2   170      3.4   861.7    0.00       0    99999.0
 258   21:50   70.0    35    1.7    32      3.6   861.9    0.00       0    99999.0
 258   22:00   69.3    36    0.4   157      1.7   861.9    0.00       0    99999.0
 258   22:10   68.3    39    0.0    32      0.2   862.0    0.00       0    99999.0
 258   22:20   67.5    41    0.0     0      0.0   862.0    0.00       0    99999.0
 258   22:30   66.8    41    0.0     0      0.0   862.0    0.00       0    99999.0
 258   22:40   66.4    42    0.0   163      0.4   862.0    0.00       0    99999.0
 258   22:50   66.7    43    0.1   173      1.2   861.9    0.00       0    99999.0
 258   23:00   66.5    42    0.6   172      2.7   862.0    0.00       0    99999.0
 258   23:10   65.8    43    0.1   253      0.7   862.1    0.00       0    99999.0
 258   23:20   65.0    44    0.0   248      0.4   862.1    0.00       0    99999.0
 258   23:30   65.1    43    0.6   245      1.2   862.1    0.00       0    99999.0
 258   23:40   65.1    44    0.5   182      1.6   862.1    0.00       0    99999.0
 258   23:50   64.6    45    0.7   191      1.8   862.1    0.00       0    99999.0
 259    0:00   64.5    43    0.7   179      1.6   862.2    0.00       0    99999.0
 259    0:10   64.4    42    0.9   174      1.5   862.2    0.00       0    99999.0
 259    0:20   64.3    40    1.6   154      2.9   862.3    0.00       0    99999.0
 259    0:30   64.2    40    2.0   142      2.9   862.3    0.00       0    99999.0
 259    0:40   63.4    43    1.7   127      2.8   862.4    0.00       0    99999.0
 259    0:50   62.6    44    0.7    49      2.1   862.5    0.00       0    99999.0
 259    1:00   62.2    46    0.8    45      1.7   862.5    0.00       0    99999.0
 259    1:10   61.7    48    1.1    21      1.8   862.5    0.00       0    99999.0
 259    1:20   60.9    50    1.1    31      1.7   862.5    0.00       0    99999.0
 259    1:30   60.4    50    0.4    55      1.3   862.4    0.00       0    99999.0
 259    1:40   60.5    50    0.6    33      1.3   862.4    0.00       0    99999.0
 259    1:50   60.6    49    0.9    58      1.5   862.4    0.00       0    99999.0
 259    2:00   60.9    48    0.6    92      1.2   862.4    0.00       0    99999.0
 259    2:10   61.2    47    1.0   101      1.9   862.4    0.00       0    99999.0
 259    2:20   61.4    46    1.1    94      1.9   862.3    0.00       0    99999.0
 259    2:30   61.4    46    1.0    46      2.2   862.3    0.00       0    99999.0
 259    2:40   62.1    44    1.2    29      3.0   862.3    0.00       0    99999.0
 259    2:50   62.7    44    0.9   253      2.0   862.3    0.00       0    99999.0
 259    3:00   62.7    45    0.0   248      0.5   862.3    0.00       0    99999.0
 259    3:10   61.6    47    0.0   207      0.5   862.3    0.00       0    99999.0
 259    3:20   60.7    49    0.0   111      0.6   862.3    0.00       0    99999.0
 259    3:30   60.4    48    0.3    88      1.1   862.3    0.00       0    99999.0
 259    3:40   60.5    48    0.1    65      0.6   862.3    0.00       0    99999.0
 259    3:50   60.6    47    0.1    90      1.2   862.3    0.00       0    99999.0
 259    4:00   61.3    44    0.0     0      0.0   862.3    0.00       0    99999.0
 259    4:10   61.4    45    0.5    47      1.4   862.2    0.00       0    99999.0
 259    4:20   61.0    46    0.1    49      0.7   862.2    0.00       0    99999.0
 259    4:30   60.7    45    0.1    59      0.7   862.2    0.00       0    99999.0
 259    4:40   60.4    46    0.4   107      1.6   862.2    0.00       0    99999.0
 259    4:50   59.8    48    1.1    92      2.3   862.2    0.00       0    99999.0
 259    5:00   58.8    51    1.1   104      1.9   862.2    0.00       0    99999.0
 259    5:10   57.8    54    0.8   129      1.4   862.2    0.00       0    99999.0
 259    5:20   58.2    52    0.7   178      1.6   862.3    0.00       0    99999.0
 259    5:30   58.3    52    0.0     0      0.0   862.5    0.00       0    99999.0
 259    5:40   57.8    54    2.1   355      4.7   862.5    0.00       0    99999.0
 259    5:50   57.3    58    1.6   315      3.3   862.6    0.00       0    99999.0
 259    6:00   56.1    62    1.7   312      3.7   862.6    0.00       0    99999.0
 259    6:10   55.6    61    1.0   324      2.6   862.6    0.00       0    99999.0
 259    6:20   55.5    60    1.4   334      2.6   862.5    0.00       3    99999.0
 259    6:30   55.3    59    1.3   353      2.3   862.6    0.00       6    99999.0
 259    6:40   55.2    60    1.2    10      2.0   862.7    0.00      11    99999.0
 259    6:50   55.5    60    1.1     4      2.5   862.7    0.00      17    99999.0
 259    7:00   56.6    56    1.9   355      3.1   862.7    0.00      19    99999.0
 259    7:10   57.6    55    1.3   345      2.3   862.7    0.00      25    99999.0
 259    7:20   58.8    54    0.1   346      1.6   862.7    0.00     102    99999.0
 259    7:30   61.3    50    0.7   297      1.3   862.6    0.00     156    99999.0
 259    7:40   63.8    47    0.2   303      1.4   862.7    0.00     182    99999.0
 259    7:50   65.2    46    0.9    13      2.0   862.8    0.00     209    99999.0
 259    8:00   68.1    42    0.0     0      0.0   862.9    0.00     235    99999.0
 259    8:10   70.7    40    0.4   159      1.7   862.9    0.00     262    99999.0
 259    8:20   70.7    37    0.2    74      1.5   862.9    0.00     290    99999.0
 259    8:30   71.2    36    0.3   188      2.0   862.9    0.00     316    99999.0

Return to Delta, Utah graphs page.


Western Regional Climate Center,wrcc@dri.edu